Camden, AL

9:49 AM CDT on August 22, 2014 (GMT -0500)
Middleton | Change Station
CLOSE
Current Station
Airport
Location: Evergreen,
Elevation: 256 ft
Nearby Weather Stations
Active Advisory: Heat Advisory

Elev 256 ft 31.42 °N, 87.04 °W | Updated 56 minutes ago

Clear
Clear
83 °F
Feels Like 90 °F
N
5
Wind Variable Wind from NNW

Today
High -- | Low -- °F
--% Chance of Precip.
Yesterday
High -- | Low -- °F
Precip. -- in
6:18 AM 7:25 PM
Waning Crescent, 8% visible
Pressure 30.12 in
Visibility 10.0 miles
Clouds Clear
Heat Index 90 °F
Dew Point 75 °F
Humidity 77%
Rainfall 0.00 in
Snow Depth Not available.
UV 4 out of 12
Pollen 8.90 out of 12
Air Quality Not available.
Flu Activity Not available.
METAR KGZH 221353Z AUTO 33004KT 10SM CLR 28/24 A3013 RMK AO2 SLP198 T02830239

More Conditions Fewer Conditions

Pressure 30.12 in
Visibility 10.0 miles
Clouds Clear
Heat Index 90 °F
Dew Point 75 °F
Humidity 77%
Rainfall 0.00 in
Snow Depth Not available.
UV 4 out of 12
Pollen 8.90 out of 12
Air Quality Not available.
Flu Activity Not available.
METAR KGZH 221353Z AUTO 33004KT 10SM CLR 28/24 A3013 RMK AO2 SLP198 T02830239

More Conditions Fewer Conditions

10-Day Weather Forecast

Almanac

Astronomy

Aug. 22, 2014 Rise Set
Actual Time 6:18 AM CDT 7:25 PM CDT
Civil Twilight 5:52 AM CDT 7:50 PM CDT
Nautical Twilight 5:22 AM CDT 8:20 PM CDT
Astronomical Twilight 4:51 AM CDT 8:51 PM CDT
Moon 3:45 AM CDT 5:30 PM CDT
Length of Visible Light 13h 57m
Length of Day
13h 07m
Tomorrow will be 1m 47s shorter.
Waning Crescent, 8% of the Moon is Illuminated
Today
Waning Crescent
Aug 25
New
Sep 2
First Quarter
Sep 8
Full
Sep 15
Last Quarter

Today's Extremes

State Highs State Lows

Community

WunderPhotos

Upload Photos

1,746,181 photos uploaded!

WunderBlogs® & News

Nearby

Snow Depth

Station Depth Elevation
No new snow has been reported.

Earthquake Activity

City Distance Mag. Time & Date
No recent earthquake activity has been reported nearby.
Minimum magnitude displayed is 2.5.

Coastal Water Temperatures

Place Temperature
No Stations Reporting

Nearby Weather Stations